createdAt,value
2023-01-09T00:00:51.736Z,99257.63
2023-01-09T00:03:19.220Z,99258.44
2023-01-09T00:05:52.663Z,99261.09
2023-01-09T00:08:39.781Z,99271.56
2023-01-09T00:13:57.635Z,99285.34
2023-01-09T00:16:37.039Z,99282.16
2023-01-09T00:19:10.705Z,99279.50
2023-01-09T00:21:39.005Z,99272.84
2023-01-09T00:24:12.671Z,99270.03
2023-01-09T00:26:48.752Z,99265.28
2023-01-09T00:29:21.828Z,99270.44
2023-01-09T00:31:55.740Z,99266.94
2023-01-09T00:34:22.465Z,99274.91
2023-01-09T00:36:55.826Z,99287.06
2023-01-09T00:39:23.647Z,99290.09
2023-01-09T00:42:01.865Z,99290.00
2023-01-09T00:44:39.573Z,99279.09
2023-01-09T00:47:19.717Z,99293.88
2023-01-09T00:49:47.324Z,99282.44
2023-01-09T00:52:21.777Z,99278.94
2023-01-09T00:54:49.469Z,99284.25
2023-01-09T00:57:22.768Z,99279.94
2023-01-09T00:59:49.437Z,99280.91
2023-01-09T01:02:22.854Z,99288.84
2023-01-09T01:05:14.873Z,99282.59
2023-01-09T01:08:01.755Z,99294.28
2023-01-09T01:10:34.691Z,99316.47
2023-01-09T01:13:01.446Z,99321.09
2023-01-09T01:15:35.699Z,99303.94
2023-01-09T01:18:02.456Z,99288.56
2023-01-09T01:20:35.643Z,99294.66
2023-01-09T01:23:06.325Z,99307.25
2023-01-09T01:25:39.700Z,99302.63
2023-01-09T01:28:07.503Z,99304.56
2023-01-09T01:30:44.658Z,99313.34
2023-01-09T01:33:16.462Z,99302.88
2023-01-09T01:35:57.281Z,99321.84
2023-01-09T01:38:24.188Z,99315.84
2023-01-09T01:41:01.804Z,99316.94
2023-01-09T01:43:48.762Z,99320.31
2023-01-09T01:46:29.542Z,99313.91
2023-01-09T01:49:06.757Z,99319.22
2023-01-09T01:51:47.852Z,99315.84
2023-01-09T01:54:27.825Z,99320.16
2023-01-09T01:56:58.729Z,99322.94
2023-01-09T01:59:46.762Z,99329.09
2023-01-09T02:02:15.120Z,99318.06
2023-01-09T02:04:49.874Z,99338.69
2023-01-09T02:07:16.712Z,99350.41
2023-01-09T02:09:56.796Z,99335.63
2023-01-09T02:12:26.196Z,99337.72
2023-01-09T02:15:12.131Z,99336.16
2023-01-09T02:18:16.227Z,99344.38
2023-01-09T02:21:01.664Z,99343.94
2023-01-09T02:23:47.305Z,99339.06
2023-01-09T02:26:42.994Z,99335.84
2023-01-09T02:29:47.156Z,99338.88
2023-01-09T02:32:41.763Z,99348.19
2023-01-09T02:35:25.234Z,99345.94
2023-01-09T02:38:16.735Z,99345.38
2023-01-09T02:40:59.667Z,99345.63
2023-01-09T02:43:33.726Z,99338.50
2023-01-09T02:46:00.317Z,99339.00
2023-01-09T02:48:34.010Z,99348.59
2023-01-09T02:51:08.466Z,99352.59
2023-01-09T02:54:06.830Z,99340.88
2023-01-09T02:56:39.356Z,99341.38
2023-01-09T02:59:41.148Z,99355.47
2023-01-09T03:02:35.859Z,99354.03
2023-01-09T03:05:20.725Z,99351.63
2023-01-09T03:08:30.815Z,99353.09
2023-01-09T03:11:05.104Z,99362.28
2023-01-09T03:14:00.847Z,99354.72
2023-01-09T03:16:41.878Z,99360.41
2023-01-09T03:19:22.826Z,99359.13
2023-01-09T03:21:50.397Z,99364.75
2023-01-09T03:24:23.809Z,99362.53
2023-01-09T03:26:51.757Z,99372.25
2023-01-09T03:29:24.849Z,99358.00
2023-01-09T03:31:51.873Z,99379.13
2023-01-09T03:34:24.883Z,99382.16
2023-01-09T03:36:58.292Z,99376.28
2023-01-09T03:39:31.806Z,99392.16
2023-01-09T03:42:08.847Z,99387.09
2023-01-09T03:44:41.828Z,99386.50
2023-01-09T03:47:14.960Z,99386.88
2023-01-09T03:49:42.013Z,99391.47
2023-01-09T03:52:15.906Z,99394.34
2023-01-09T03:54:48.861Z,99388.34
2023-01-09T03:57:21.813Z,99399.19
2023-01-09T03:59:54.765Z,99387.03
2023-01-09T04:02:27.825Z,99398.44
2023-01-09T04:04:57.664Z,99396.63
2023-01-09T04:07:30.835Z,99399.41
2023-01-09T04:10:11.009Z,99391.41
2023-01-09T04:12:44.799Z,99400.72
2023-01-09T04:15:18.853Z,99401.84
2023-01-09T04:17:51.727Z,99404.81
2023-01-09T04:20:24.695Z,99407.47
2023-01-09T04:22:51.428Z,99404.09
2023-01-09T04:25:24.771Z,99403.50
2023-01-09T04:27:57.709Z,99396.81
2023-01-09T04:30:24.640Z,99395.25
2023-01-09T04:32:58.925Z,99404.28
2023-01-09T04:35:32.716Z,99406.06
2023-01-09T04:38:07.884Z,99400.91
2023-01-09T04:40:34.535Z,99415.19
2023-01-09T04:43:07.781Z,99405.00
2023-01-09T04:45:34.430Z,99399.94
2023-01-09T04:48:07.825Z,99407.03
2023-01-09T04:50:34.464Z,99419.50
2023-01-09T04:53:08.124Z,99418.78
2023-01-09T04:55:35.132Z,99419.72
2023-01-09T04:58:08.835Z,99430.28
2023-01-09T05:00:41.985Z,99414.22
2023-01-09T05:03:14.794Z,99426.09
2023-01-09T05:05:41.541Z,99419.13
2023-01-09T05:08:14.802Z,99423.72
2023-01-09T05:11:01.089Z,99434.97
2023-01-09T05:13:34.847Z,99438.31
2023-01-09T05:16:07.867Z,99432.31
2023-01-09T05:18:35.089Z,99431.50
2023-01-09T05:21:10.467Z,99436.06
2023-01-09T05:23:37.693Z,99444.09
2023-01-09T05:26:11.783Z,99435.47
2023-01-09T05:28:39.426Z,99448.53
2023-01-09T05:31:16.435Z,99442.28
2023-01-09T05:33:43.437Z,99452.63
2023-01-09T05:36:17.266Z,99453.69
2023-01-09T05:38:44.115Z,99448.16
2023-01-09T05:41:18.593Z,99443.13
2023-01-09T05:43:51.858Z,99445.53
2023-01-09T05:46:19.747Z,99454.88
2023-01-09T05:48:52.810Z,99456.69
2023-01-09T05:51:27.972Z,99459.22
2023-01-09T05:54:01.859Z,99454.88
2023-01-09T05:56:31.375Z,99463.53
2023-01-09T05:58:58.235Z,99456.59
2023-01-09T06:01:31.843Z,99448.75
2023-01-09T06:03:58.615Z,99454.53
2023-01-09T06:06:37.661Z,99451.78
2023-01-09T06:09:11.200Z,99444.47
2023-01-09T06:11:50.919Z,99444.94
2023-01-09T06:14:17.887Z,99452.97
2023-01-09T06:16:50.958Z,99439.78
2023-01-09T06:19:18.132Z,99451.53
2023-01-09T06:21:52.250Z,99447.91
2023-01-09T06:24:19.307Z,99455.72
2023-01-09T06:26:52.845Z,99460.66
2023-01-09T06:29:19.751Z,99458.00
2023-01-09T06:31:53.101Z,99453.19
2023-01-09T06:34:19.828Z,99458.94
2023-01-09T06:36:54.020Z,99457.03
2023-01-09T06:39:20.814Z,99454.25
2023-01-09T06:41:49.662Z,99456.50
2023-01-09T06:44:22.848Z,99457.97
2023-01-09T06:46:55.909Z,99454.38
2023-01-09T06:49:25.444Z,99455.09
2023-01-09T06:51:52.348Z,99454.69
2023-01-09T06:54:28.657Z,99460.72
2023-01-09T06:56:55.781Z,99460.59
2023-01-09T06:59:28.983Z,99458.66
2023-01-09T07:02:00.943Z,99464.53
2023-01-09T07:04:34.046Z,99449.28
2023-01-09T07:07:00.848Z,99452.38
2023-01-09T07:09:33.890Z,99447.09
2023-01-09T07:12:06.926Z,99456.44
2023-01-09T07:14:40.871Z,99446.59
2023-01-09T07:17:07.760Z,99445.63
2023-01-09T07:19:40.907Z,99448.00
2023-01-09T07:22:22.350Z,99444.16
2023-01-09T07:24:55.887Z,99445.72
2023-01-09T07:27:28.988Z,99447.38
2023-01-09T07:29:55.815Z,99443.06
2023-01-09T07:32:28.880Z,99450.03
2023-01-09T07:34:55.900Z,99454.59
2023-01-09T07:37:28.886Z,99457.09
2023-01-09T07:39:55.617Z,99450.03
2023-01-09T07:42:29.023Z,99455.44
2023-01-09T07:44:55.807Z,99456.41
2023-01-09T07:47:28.900Z,99463.38
2023-01-09T07:49:55.817Z,99462.97
2023-01-09T07:52:29.080Z,99462.88
2023-01-09T07:54:56.004Z,99462.34
2023-01-09T07:57:32.444Z,99465.13
2023-01-09T08:00:08.188Z,99452.38
2023-01-09T08:02:34.857Z,99465.59
2023-01-09T08:05:07.887Z,99466.44
2023-01-09T08:07:35.012Z,99455.13
2023-01-09T08:10:17.108Z,99461.28
2023-01-09T08:12:50.053Z,99470.16
2023-01-09T08:15:23.871Z,99464.88
2023-01-09T08:17:50.682Z,99466.44
2023-01-09T08:20:23.895Z,99468.09
2023-01-09T08:22:51.008Z,99469.06
2023-01-09T08:25:26.130Z,99474.38
2023-01-09T08:27:56.363Z,99466.56
2023-01-09T08:30:31.182Z,99470.50
2023-01-09T08:32:57.814Z,99478.06
2023-01-09T08:35:31.930Z,99480.34
2023-01-09T08:37:58.601Z,99478.78
2023-01-09T08:40:32.002Z,99476.00
2023-01-09T08:43:23.996Z,99476.00
2023-01-09T08:46:10.017Z,99479.47
2023-01-09T08:48:42.944Z,99472.50
2023-01-09T08:51:22.884Z,99483.59
2023-01-09T08:53:56.864Z,99487.91
2023-01-09T08:56:26.852Z,99484.28
2023-01-09T08:58:59.879Z,99494.28
2023-01-09T09:01:33.157Z,99492.47
2023-01-09T09:04:09.056Z,99491.63
2023-01-09T09:06:37.669Z,99489.00
2023-01-09T09:09:11.971Z,99489.97
2023-01-09T09:11:52.837Z,99488.16
2023-01-09T09:14:44.825Z,99477.31
2023-01-09T09:17:11.576Z,99477.31
2023-01-09T09:19:45.852Z,99478.41
2023-01-09T09:22:13.664Z,99478.31
2023-01-09T09:24:46.920Z,99473.84
2023-01-09T09:27:13.551Z,99484.41
2023-01-09T09:29:47.051Z,99483.59
2023-01-09T09:32:20.920Z,99489.69
2023-01-09T09:34:53.977Z,99483.59
2023-01-09T09:37:28.741Z,99488.16
2023-01-09T09:39:56.797Z,99492.63
2023-01-09T09:43:27.845Z,99501.50
2023-01-09T09:46:11.929Z,99493.78
2023-01-09T09:48:48.293Z,99515.66
2023-01-09T09:51:30.949Z,99501.72
2023-01-09T09:54:40.434Z,99502.97
2023-01-09T09:57:21.083Z,99508.47
2023-01-09T09:59:57.982Z,99494.81
2023-01-09T10:02:49.782Z,99505.97
2023-01-09T10:05:44.910Z,99516.69
2023-01-09T10:08:45.445Z,99519.19
2023-01-09T10:11:36.285Z,99510.09
2023-01-09T10:14:06.365Z,99526.03
2023-01-09T10:17:05.044Z,99518.69
2023-01-09T10:19:59.069Z,99512.44
2023-01-09T10:22:54.954Z,99523.97
2023-01-09T10:25:45.543Z,99517.44
2023-01-09T10:28:31.929Z,99516.25
2023-01-09T10:31:28.969Z,99519.59
2023-01-09T10:34:10.799Z,99521.13
2023-01-09T10:36:52.698Z,99511.41
2023-01-09T10:39:41.435Z,99518.41
2023-01-09T10:42:39.235Z,99514.06
2023-01-09T10:45:19.998Z,99515.03
2023-01-09T10:47:56.787Z,99521.13
2023-01-09T10:50:37.932Z,99524.63
2023-01-09T10:53:35.989Z,99519.34
2023-01-09T10:56:15.765Z,99526.19
2023-01-09T10:58:49.992Z,99526.19
2023-01-09T11:01:24.482Z,99523.41
2023-01-09T11:03:58.003Z,99531.09
2023-01-09T11:06:37.804Z,99535.44
2023-01-09T11:09:11.953Z,99546.97
2023-01-09T11:11:53.417Z,99542.41
2023-01-09T11:14:37.978Z,99553.44
2023-01-09T11:17:04.927Z,99552.34
2023-01-09T11:20:21.964Z,99560.59
2023-01-09T11:22:51.185Z,99555.91
2023-01-09T11:25:27.933Z,99562.75
2023-01-09T11:28:03.689Z,99565.13
2023-01-09T11:30:38.163Z,99563.47
2023-01-09T11:33:18.230Z,99574.66
2023-01-09T11:36:12.315Z,99577.28
2023-01-09T11:39:12.103Z,99582.44
2023-01-09T11:41:49.565Z,99595.41
2023-01-09T11:44:16.799Z,99595.56
2023-01-09T11:46:55.780Z,99607.22
2023-01-09T11:49:28.790Z,99604.13
2023-01-09T11:52:21.974Z,99605.72
2023-01-09T11:55:15.091Z,99610.78
2023-01-09T11:57:49.119Z,99615.75
2023-01-09T12:00:29.879Z,99622.25
2023-01-09T12:03:10.300Z,99626.25
2023-01-09T12:06:33.811Z,99632.50
2023-01-09T12:09:24.321Z,99628.06
2023-01-09T12:12:16.426Z,99640.31
2023-01-09T12:15:09.847Z,99642.84
2023-01-09T12:18:24.115Z,99653.19
2023-01-09T12:21:03.014Z,99651.25
2023-01-09T12:23:52.852Z,99662.53
2023-01-09T12:26:37.615Z,99662.31
2023-01-09T12:29:29.163Z,99658.56
2023-01-09T12:32:25.097Z,99659.88
2023-01-09T12:35:19.371Z,99664.28
2023-01-09T12:38:14.037Z,99679.06
2023-01-09T12:40:52.228Z,99675.00
2023-01-09T12:43:47.012Z,99674.25
2023-01-09T12:46:31.350Z,99674.81
2023-01-09T12:49:33.987Z,99676.84
2023-01-09T12:52:19.590Z,99675.50
2023-01-09T12:55:11.056Z,99683.97
2023-01-09T12:57:54.949Z,99686.19
2023-01-09T13:00:35.749Z,99686.09
2023-01-09T13:03:22.701Z,99687.00
2023-01-09T13:05:59.235Z,99691.31
2023-01-09T13:08:41.580Z,99693.34
2023-01-09T13:11:25.237Z,99698.22
2023-01-09T13:14:09.288Z,99697.75
2023-01-09T13:16:50.326Z,99701.47
2023-01-09T13:19:34.097Z,99707.31
2023-01-09T13:22:06.131Z,99717.44
2023-01-09T13:24:42.089Z,99717.16
2023-01-09T13:27:23.089Z,99730.94
2023-01-09T13:30:03.581Z,99731.63
2023-01-09T13:32:55.187Z,99745.03
2023-01-09T13:35:22.040Z,99752.84
2023-01-09T13:38:00.089Z,99753.09
2023-01-09T13:40:40.177Z,99772.91
2023-01-09T13:43:24.456Z,99774.00
2023-01-09T13:45:59.145Z,99777.88
2023-01-09T13:48:29.473Z,99780.06
2023-01-09T13:54:18.103Z,99782.69
2023-01-09T13:57:41.163Z,99795.22
2023-01-09T14:00:14.067Z,99789.34
2023-01-09T14:02:45.166Z,99806.19
2023-01-09T14:05:42.977Z,99801.28
2023-01-09T14:08:25.077Z,99808.66
2023-01-09T14:11:07.377Z,99813.38
2023-01-09T14:13:44.967Z,99826.84
2023-01-09T14:16:25.363Z,99820.97
2023-01-09T14:19:13.057Z,99825.59
2023-01-09T14:21:54.277Z,99831.97
2023-01-09T14:24:59.202Z,99846.28
2023-01-09T14:27:54.007Z,99844.75
2023-01-09T14:30:33.431Z,99860.91
2023-01-09T14:33:24.480Z,99865.72
2023-01-09T14:36:19.473Z,99880.22
2023-01-09T14:39:01.548Z,99893.69
2023-01-09T14:42:13.152Z,99893.94
2023-01-09T14:44:42.872Z,99895.13
2023-01-09T14:47:38.050Z,99894.31
2023-01-09T14:50:19.246Z,99906.84
2023-01-09T14:52:58.145Z,99918.25
2023-01-09T14:55:40.245Z,99922.84
2023-01-09T14:58:18.136Z,99935.38
2023-01-09T15:01:12.963Z,99939.34
2023-01-09T15:03:56.165Z,99942.72
2023-01-09T15:06:33.680Z,99951.97
2023-01-09T15:09:28.035Z,99962.94
2023-01-09T15:12:15.081Z,99967.03
2023-01-09T15:14:52.771Z,99967.75
2023-01-09T15:17:29.039Z,99978.41
2023-01-09T15:19:58.009Z,99983.22
2023-01-09T15:22:39.213Z,99986.13
2023-01-09T15:25:38.107Z,99993.19
2023-01-09T15:28:37.195Z,99995.13
2023-01-09T15:31:18.757Z,99994.50
2023-01-09T15:33:47.972Z,100000.91
2023-01-09T15:36:40.077Z,100002.94
2023-01-09T15:39:07.336Z,100005.91
2023-01-09T15:41:59.509Z,100014.69
2023-01-09T15:44:37.210Z,100022.03
2023-01-09T15:47:07.112Z,100033.66
2023-01-09T15:49:41.096Z,100045.22
2023-01-09T15:52:20.045Z,100054.22
2023-01-09T15:54:47.051Z,100049.91
2023-01-09T15:57:33.368Z,100068.53
2023-01-09T16:01:01.348Z,100066.81
2023-01-09T16:03:41.092Z,100075.16
2023-01-09T16:06:20.132Z,100082.09
2023-01-09T16:08:53.868Z,100087.34
2023-01-09T16:11:30.235Z,100088.31
2023-01-09T16:14:34.374Z,100102.44
2023-01-09T16:17:21.463Z,100101.81
2023-01-09T16:20:10.881Z,100120.91
2023-01-09T16:23:05.737Z,100123.59
2023-01-09T16:25:41.131Z,100130.38
2023-01-09T16:28:24.173Z,100135.63
2023-01-09T16:31:03.320Z,100145.31
2023-01-09T16:33:41.573Z,100148.78
2023-01-09T16:36:17.279Z,100163.00
2023-01-09T16:38:50.127Z,100155.38
2023-01-09T16:41:44.011Z,100165.25
2023-01-09T16:44:18.118Z,100174.13
2023-01-09T16:46:45.281Z,100170.75
2023-01-09T16:49:26.050Z,100183.16
2023-01-09T16:52:05.261Z,100176.38
2023-01-09T16:54:38.079Z,100173.97
2023-01-09T16:57:11.319Z,100190.66
2023-01-09T16:59:38.287Z,100186.63
2023-01-09T17:02:24.206Z,100199.69
2023-01-09T17:04:57.191Z,100197.03
2023-01-09T17:07:32.165Z,100206.75
2023-01-09T17:10:05.190Z,100203.44
2023-01-09T17:12:47.095Z,100216.69
2023-01-09T17:15:13.942Z,100225.78
2023-01-09T17:17:47.226Z,100218.28
2023-01-09T17:20:18.348Z,100229.81
2023-01-09T17:22:45.353Z,100229.28
2023-01-09T17:25:41.535Z,100231.81
2023-01-09T17:28:40.305Z,100242.50
2023-01-09T17:31:11.488Z,100242.50
2023-01-09T17:33:47.189Z,100242.63
2023-01-09T17:36:31.134Z,100242.09
2023-01-09T17:39:06.174Z,100244.84
2023-01-09T17:41:37.080Z,100260.81
2023-01-09T17:44:11.183Z,100264.75
2023-01-09T17:46:47.179Z,100272.13
2023-01-09T17:49:21.822Z,100273.38
2023-01-09T17:51:56.170Z,100279.00
2023-01-09T17:54:23.007Z,100281.84
2023-01-09T17:56:57.102Z,100291.56
2023-01-09T17:59:30.140Z,100288.50
2023-01-09T18:02:03.412Z,100288.81
2023-01-09T18:04:30.297Z,100285.63
2023-01-09T18:07:03.264Z,100298.00
2023-01-09T18:09:30.331Z,100300.09
2023-01-09T18:12:10.201Z,100299.34
2023-01-09T18:14:50.380Z,100313.81
2023-01-09T18:17:17.495Z,100320.25
2023-01-09T18:19:51.211Z,100325.72
2023-01-09T18:22:24.223Z,100326.69
2023-01-09T18:24:51.400Z,100332.94
2023-01-09T18:27:25.273Z,100334.94
2023-01-09T18:29:59.166Z,100346.63
2023-01-09T18:32:26.023Z,100350.19
2023-01-09T18:34:59.275Z,100352.09
2023-01-09T18:37:25.898Z,100356.56
2023-01-09T18:39:59.240Z,100359.38
2023-01-09T18:42:32.223Z,100366.47
2023-01-09T18:45:05.173Z,100371.66
2023-01-09T18:47:38.284Z,100376.81
2023-01-09T18:50:12.285Z,100377.56
2023-01-09T18:52:46.397Z,100376.63
2023-01-09T18:55:20.256Z,100384.44
2023-01-09T18:57:47.043Z,100384.16
2023-01-09T19:00:21.159Z,100392.63
2023-01-09T19:02:47.707Z,100397.69
2023-01-09T19:05:15.715Z,100398.28
2023-01-09T19:07:49.170Z,100399.94
2023-01-09T19:10:30.658Z,100417.00
2023-01-09T19:13:10.169Z,100411.44
2023-01-09T19:15:46.776Z,100417.47
2023-01-09T19:18:23.154Z,100425.06
2023-01-09T19:21:26.223Z,100422.34
2023-01-09T19:24:00.273Z,100437.25
2023-01-09T19:26:35.984Z,100437.06
2023-01-09T19:29:09.290Z,100432.31
2023-01-09T19:31:38.907Z,100441.09
2023-01-09T19:34:13.243Z,100440.22
2023-01-09T19:36:47.284Z,100447.19
2023-01-09T19:39:15.059Z,100453.56
2023-01-09T19:41:49.196Z,100443.38
2023-01-09T19:44:22.208Z,100451.41
2023-01-09T19:46:48.980Z,100457.53
2023-01-09T19:49:22.223Z,100463.88
2023-01-09T19:51:50.540Z,100463.75
2023-01-09T19:54:24.255Z,100472.34
2023-01-09T19:56:51.095Z,100480.09
2023-01-09T19:59:24.239Z,100493.97
2023-01-09T20:01:57.354Z,100494.72
2023-01-09T20:04:33.153Z,100498.28
2023-01-09T20:07:00.128Z,100512.78
2023-01-09T20:09:35.252Z,100515.25
2023-01-09T20:12:08.380Z,100522.34
2023-01-09T20:14:48.228Z,100523.09
2023-01-09T20:17:15.243Z,100523.09
2023-01-09T20:19:55.244Z,100531.78
2023-01-09T20:22:24.124Z,100542.34
2023-01-09T20:24:57.251Z,100554.59
2023-01-09T20:27:24.159Z,100561.50
2023-01-09T20:29:57.448Z,100564.97
2023-01-09T20:32:38.281Z,100564.06
2023-01-09T20:35:12.256Z,100566.59
2023-01-09T20:37:47.449Z,100570.00
2023-01-09T20:40:17.099Z,100571.78
2023-01-09T20:42:50.223Z,100572.53
2023-01-09T20:45:17.138Z,100589.44
2023-01-09T20:47:50.198Z,100595.88
2023-01-09T20:50:17.502Z,100602.09
2023-01-09T20:52:51.218Z,100609.16
2023-01-09T20:55:18.418Z,100607.59
2023-01-09T20:57:51.293Z,100617.50
2023-01-09T21:00:25.211Z,100619.50
2023-01-09T21:02:55.661Z,100625.06
2023-01-09T21:05:29.124Z,100618.94
2023-01-09T21:08:02.267Z,100631.50
2023-01-09T21:10:29.128Z,100640.47
2023-01-09T21:13:19.772Z,100641.50
2023-01-09T21:15:53.596Z,100648.09
2023-01-09T21:18:21.073Z,100670.09
2023-01-09T21:20:56.502Z,100675.28
2023-01-09T21:23:30.341Z,100672.94
2023-01-09T21:26:03.153Z,100676.50
2023-01-09T21:28:39.263Z,100676.63
2023-01-09T21:31:20.096Z,100697.09
2023-01-09T21:33:54.319Z,100704.00
2023-01-09T21:36:30.643Z,100711.94
2023-01-09T21:39:07.850Z,100710.19
2023-01-09T21:41:56.660Z,100722.28
2023-01-09T21:44:48.280Z,100724.94
2023-01-09T21:47:15.761Z,100737.13
2023-01-09T21:49:50.341Z,100726.56
2023-01-09T21:52:18.557Z,100742.41
2023-01-09T21:54:52.427Z,100743.34
2023-01-09T21:57:19.244Z,100746.75
2023-01-09T21:59:52.323Z,100737.22
2023-01-09T22:02:19.124Z,100743.34
2023-01-09T22:04:55.503Z,100750.25
2023-01-09T22:07:22.442Z,100752.91
2023-01-09T22:09:56.471Z,100757.22
2023-01-09T22:12:29.364Z,100763.28
2023-01-09T22:15:09.298Z,100774.69
2023-01-09T22:17:36.039Z,100774.69
2023-01-09T22:20:06.033Z,100777.53
2023-01-09T22:22:39.363Z,100778.75
2023-01-09T22:25:16.225Z,100789.31
2023-01-09T22:27:49.213Z,100793.09
2023-01-09T22:30:16.187Z,100789.09
2023-01-09T22:32:50.270Z,100797.03
2023-01-09T22:35:17.118Z,100800.69
2023-01-09T22:37:50.331Z,100809.00
2023-01-09T22:40:17.457Z,100825.84
2023-01-09T22:42:50.330Z,100819.91
2023-01-09T22:45:17.093Z,100820.94
2023-01-09T22:47:53.239Z,100833.28
2023-01-09T22:50:19.887Z,100831.66
2023-01-09T22:52:55.352Z,100835.34
2023-01-09T22:55:21.984Z,100836.94
2023-01-09T22:57:48.811Z,100838.56
2023-01-09T23:00:22.310Z,100837.81
2023-01-09T23:02:49.164Z,100849.13
2023-01-09T23:05:22.290Z,100848.19
2023-01-09T23:07:50.238Z,100860.47
2023-01-09T23:10:24.285Z,100856.97
2023-01-09T23:12:57.491Z,100867.53
2023-01-09T23:15:30.422Z,100869.22
2023-01-09T23:18:04.368Z,100874.69
2023-01-09T23:20:41.298Z,100887.13
2023-01-09T23:23:08.194Z,100883.03
2023-01-09T23:25:50.483Z,100885.88
2023-01-09T23:28:17.938Z,100890.75
2023-01-09T23:30:53.919Z,100911.00
2023-01-09T23:33:28.262Z,100909.47
2023-01-09T23:36:04.083Z,100916.78
2023-01-09T23:38:30.918Z,100930.94
2023-01-09T23:41:04.480Z,100939.09
2023-01-09T23:43:38.751Z,100944.47
2023-01-09T23:46:16.137Z,100940.28
2023-01-09T23:48:49.277Z,100944.56
2023-01-09T23:51:17.290Z,100952.63
2023-01-09T23:53:51.321Z,100960.72
2023-01-09T23:56:18.713Z,100968.63
2023-01-09T23:58:52.298Z,100970.41
